createdAt,value
2019-01-31T00:01:08.424Z,93940.40
2019-01-31T00:04:13.828Z,93928.31
2019-01-31T00:07:07.437Z,93942.52
2019-01-31T00:10:06.956Z,93938.16
2019-01-31T00:13:26.021Z,93950.78
2019-01-31T00:16:40.167Z,93950.02
2019-01-31T00:19:33.196Z,93959.14
2019-01-31T00:22:53.922Z,93958.39
2019-01-31T00:26:16.062Z,93965.05
2019-01-31T00:29:03.503Z,93968.78
2019-01-31T00:31:54.554Z,93968.78
2019-01-31T00:35:03.169Z,93983.36
2019-01-31T00:37:47.997Z,93989.59
2019-01-31T00:40:46.321Z,93985.59
2019-01-31T00:44:01.847Z,93976.31
2019-01-31T00:46:48.066Z,93987.45
2019-01-31T00:49:49.646Z,93986.30
2019-01-31T00:52:58.083Z,93878.20
2019-01-31T00:55:43.539Z,93981.36
2019-01-31T00:58:56.915Z,93986.99
2019-01-31T01:02:06.714Z,93985.08
2019-01-31T01:05:25.726Z,93993.30
2019-01-31T01:08:35.433Z,93997.26
2019-01-31T01:11:40.550Z,93975.58
2019-01-31T01:14:34.431Z,93975.58
2019-01-31T01:17:14.176Z,93976.59
2019-01-31T01:20:54.666Z,93978.17
2019-01-31T01:23:59.275Z,93969.53
2019-01-31T01:26:57.766Z,93969.53
2019-01-31T01:29:47.778Z,93972.00
2019-01-31T01:32:45.195Z,93964.31
2019-01-31T01:35:52.355Z,93964.06
2019-01-31T01:38:47.638Z,93961.23
2019-01-31T01:41:53.587Z,93965.64
2019-01-31T01:45:01.230Z,93966.31
2019-01-31T01:47:44.658Z,93973.91
2019-01-31T01:50:39.379Z,93965.61
2019-01-31T01:53:54.623Z,93972.65
2019-01-31T01:56:39.953Z,93969.91
2019-01-31T01:59:31.014Z,93968.56
2019-01-31T02:02:31.195Z,93972.56
2019-01-31T02:05:09.819Z,93967.56
2019-01-31T02:08:13.552Z,93970.34
2019-01-31T02:11:17.129Z,93976.12
2019-01-31T02:14:25.645Z,93976.04
2019-01-31T02:17:22.887Z,93976.04
2019-01-31T02:20:39.454Z,93976.09
2019-01-31T02:23:40.259Z,93981.26
2019-01-31T02:26:41.809Z,93978.43
2019-01-31T02:29:37.288Z,93975.39
2019-01-31T02:32:53.112Z,93977.34
2019-01-31T02:35:34.745Z,93982.05
2019-01-31T02:38:11.908Z,93983.00
2019-01-31T02:41:04.548Z,93981.98
2019-01-31T02:44:20.647Z,93985.69
2019-01-31T02:47:31.294Z,93983.08
2019-01-31T02:50:23.952Z,93981.66
2019-01-31T02:53:20.609Z,93969.38
2019-01-31T02:56:25.926Z,93969.38
2019-01-31T02:59:39.885Z,93980.03
2019-01-31T03:02:24.856Z,93974.30
2019-01-31T03:05:07.363Z,93971.98
2019-01-31T03:08:10.792Z,93972.77
2019-01-31T03:10:58.287Z,93965.53
2019-01-31T03:13:54.766Z,93964.48
2019-01-31T03:16:59.954Z,93961.07
2019-01-31T03:19:47.033Z,93960.37
2019-01-31T03:22:59.179Z,93957.95
2019-01-31T03:26:04.967Z,93966.56
2019-01-31T03:29:27.659Z,93959.33
2019-01-31T03:32:10.623Z,93959.63
2019-01-31T03:35:36.499Z,93959.08
2019-01-31T03:38:24.100Z,93697.30
2019-01-31T03:41:27.814Z,93697.30
2019-01-31T03:44:44.171Z,93970.06
2019-01-31T03:48:07.669Z,93976.89
2019-01-31T03:50:44.384Z,93972.44
2019-01-31T03:53:50.257Z,93972.17
2019-01-31T03:56:52.805Z,93972.17
2019-01-31T03:59:45.463Z,93972.59
2019-01-31T04:02:49.241Z,93965.89
2019-01-31T04:05:52.049Z,93965.89
2019-01-31T04:08:21.422Z,93965.63
2019-01-31T04:10:50.817Z,93961.70
2019-01-31T04:13:20.186Z,93958.41
2019-01-31T04:15:49.562Z,93948.79
2019-01-31T04:18:18.964Z,93949.66
2019-01-31T04:20:51.071Z,93950.00
2019-01-31T04:23:19.435Z,93947.66
2019-01-31T04:25:48.809Z,93946.89
2019-01-31T04:28:18.180Z,93949.86
2019-01-31T04:30:47.508Z,93949.84
2019-01-31T04:33:16.864Z,93947.95
2019-01-31T04:35:46.223Z,93946.48
2019-01-31T04:38:15.583Z,93949.45
2019-01-31T04:40:44.947Z,93949.92
2019-01-31T04:43:14.314Z,93955.73
2019-01-31T04:45:43.716Z,93960.71
2019-01-31T04:48:13.135Z,93960.94
2019-01-31T04:50:42.458Z,93951.08
2019-01-31T04:53:11.904Z,93943.08
2019-01-31T04:55:41.403Z,93949.84
2019-01-31T04:58:10.757Z,93940.09
2019-01-31T05:00:40.204Z,93935.06
2019-01-31T05:03:09.653Z,93943.45
2019-01-31T05:05:39.020Z,93941.95
2019-01-31T05:08:08.367Z,93939.28
2019-01-31T05:10:43.181Z,93953.23
2019-01-31T05:13:08.870Z,93940.55
2019-01-31T05:15:38.262Z,93960.97
2019-01-31T05:18:07.669Z,93960.97
2019-01-31T05:20:37.071Z,93953.06
2019-01-31T05:23:06.446Z,93968.01
2019-01-31T05:25:35.844Z,93964.78
2019-01-31T05:28:05.316Z,93968.16
2019-01-31T05:30:34.717Z,93967.20
2019-01-31T05:33:04.234Z,93971.75
2019-01-31T05:35:33.548Z,93982.21
2019-01-31T05:38:02.912Z,93987.45
2019-01-31T05:40:32.255Z,93981.39
2019-01-31T05:43:01.633Z,93984.05
2019-01-31T05:45:30.976Z,93989.84
2019-01-31T05:48:00.381Z,93996.66
2019-01-31T05:50:29.793Z,93975.30
2019-01-31T05:52:59.469Z,93982.13
2019-01-31T05:55:28.859Z,93978.64
2019-01-31T05:57:59.957Z,93983.89
2019-01-31T06:00:32.788Z,93993.13
2019-01-31T06:03:02.229Z,93990.30
2019-01-31T06:05:31.955Z,93992.72
2019-01-31T06:08:01.284Z,93999.50
2019-01-31T06:10:33.522Z,93998.83
2019-01-31T06:13:01.960Z,93998.23
2019-01-31T06:15:31.365Z,93992.52
2019-01-31T06:18:00.769Z,93993.98
2019-01-31T06:20:30.161Z,94002.95
2019-01-31T06:22:59.528Z,93997.84
2019-01-31T06:25:29.050Z,93992.39
2019-01-31T06:27:58.386Z,93993.03
2019-01-31T06:30:27.863Z,93999.97
2019-01-31T06:32:57.250Z,93995.42
2019-01-31T06:35:26.565Z,94002.30
2019-01-31T06:37:55.928Z,94013.39
2019-01-31T06:40:25.266Z,94017.66
2019-01-31T06:42:54.676Z,94025.31
2019-01-31T06:45:24.023Z,94023.92
2019-01-31T06:47:53.419Z,93908.24
2019-01-31T06:50:22.791Z,94033.08
2019-01-31T06:52:52.124Z,94032.17
2019-01-31T06:55:21.481Z,94036.62
2019-01-31T06:57:50.823Z,94037.36
2019-01-31T07:00:22.179Z,94029.23
2019-01-31T07:02:52.030Z,94031.31
2019-01-31T07:05:21.410Z,94028.53
2019-01-31T07:07:50.797Z,94025.39
2019-01-31T07:10:25.462Z,94034.23
2019-01-31T07:12:54.766Z,94031.39
2019-01-31T07:15:24.130Z,94032.84
2019-01-31T07:17:53.501Z,94042.63
2019-01-31T07:20:22.857Z,94038.72
2019-01-31T07:22:52.223Z,94050.73
2019-01-31T07:25:23.519Z,94062.52
2019-01-31T07:27:52.991Z,94055.21
2019-01-31T07:30:22.563Z,94058.60
2019-01-31T07:32:51.917Z,94051.95
2019-01-31T07:35:21.251Z,94044.01
2019-01-31T07:37:52.990Z,94042.52
2019-01-31T07:40:22.178Z,94041.53
2019-01-31T07:42:51.524Z,94033.50
2019-01-31T07:45:26.197Z,94042.39
2019-01-31T07:47:55.550Z,94049.52
2019-01-31T07:50:25.000Z,94050.23
2019-01-31T07:52:54.621Z,94045.46
2019-01-31T07:55:23.955Z,94048.23
2019-01-31T07:57:53.287Z,94045.97
2019-01-31T08:00:22.814Z,94034.56
2019-01-31T08:02:52.171Z,94040.36
2019-01-31T08:05:22.244Z,94036.84
2019-01-31T08:07:53.090Z,94032.23
2019-01-31T08:10:24.963Z,94026.17
2019-01-31T08:12:54.408Z,94016.71
2019-01-31T08:15:23.752Z,94022.73
2019-01-31T08:17:53.100Z,94029.55
2019-01-31T08:20:22.456Z,94025.39
2019-01-31T08:22:51.801Z,94020.17
2019-01-31T08:25:21.365Z,94017.70
2019-01-31T08:27:52.147Z,94013.23
2019-01-31T08:30:26.725Z,94018.02
2019-01-31T08:32:56.129Z,94021.20
2019-01-31T08:35:25.608Z,94027.83
2019-01-31T08:37:55.040Z,94017.11
2019-01-31T08:40:24.370Z,94020.74
2019-01-31T08:42:53.955Z,94021.05
2019-01-31T08:45:23.286Z,94030.38
2019-01-31T08:47:52.656Z,94030.94
2019-01-31T08:50:23.902Z,94041.13
2019-01-31T08:52:53.272Z,94038.34
2019-01-31T08:58:13.325Z,94028.99
2019-01-31T09:00:42.696Z,94024.67
2019-01-31T09:03:12.098Z,94027.25
2019-01-31T09:05:41.443Z,94024.58
2019-01-31T09:08:10.823Z,94035.61
2019-01-31T09:10:40.780Z,94025.33
2019-01-31T09:13:11.866Z,94026.63
2019-01-31T09:15:41.216Z,94022.38
2019-01-31T09:18:10.730Z,94024.97
2019-01-31T09:20:49.526Z,94029.94
2019-01-31T09:23:29.882Z,94026.58
2019-01-31T09:26:23.210Z,94033.19
2019-01-31T09:29:29.431Z,94034.78
2019-01-31T09:32:25.990Z,94027.29
2019-01-31T09:35:09.474Z,94026.49
2019-01-31T09:38:35.075Z,94030.42
2019-01-31T09:41:37.721Z,94030.72
2019-01-31T09:44:28.391Z,94022.39
2019-01-31T09:47:41.760Z,94015.06
2019-01-31T09:50:35.275Z,94023.67
2019-01-31T09:54:03.726Z,94017.50
2019-01-31T09:57:22.910Z,94019.57
2019-01-31T10:00:38.315Z,94020.25
2019-01-31T10:03:42.715Z,94011.41
2019-01-31T10:06:47.916Z,94004.20
2019-01-31T10:09:56.575Z,94003.23
2019-01-31T10:13:09.992Z,94003.98
2019-01-31T10:16:10.890Z,93994.20
2019-01-31T10:19:26.332Z,93994.41
2019-01-31T10:22:10.666Z,93996.39
2019-01-31T10:25:13.685Z,93994.34
2019-01-31T10:28:13.048Z,93985.22
2019-01-31T10:31:14.475Z,93991.06
2019-01-31T10:34:15.876Z,93992.27
2019-01-31T10:37:10.651Z,93988.17
2019-01-31T10:40:06.193Z,93986.84
2019-01-31T10:43:01.726Z,93988.37
2019-01-31T10:45:51.840Z,93987.03
2019-01-31T10:49:08.126Z,93982.86
2019-01-31T10:52:25.680Z,93985.69
2019-01-31T10:55:46.440Z,93976.12
2019-01-31T10:58:26.843Z,93971.11
2019-01-31T11:01:09.121Z,93978.80
2019-01-31T11:04:09.492Z,93976.57
2019-01-31T11:07:14.635Z,93979.91
2019-01-31T11:10:08.175Z,93983.94
2019-01-31T11:13:04.281Z,93995.18
2019-01-31T11:16:22.195Z,93983.61
2019-01-31T11:19:27.136Z,93983.16
2019-01-31T11:22:52.778Z,93982.55
2019-01-31T11:25:44.658Z,93987.07
2019-01-31T11:28:53.626Z,93972.09
2019-01-31T11:32:18.996Z,93978.09
2019-01-31T11:35:21.670Z,93973.15
2019-01-31T11:38:26.466Z,93977.74
2019-01-31T11:41:32.653Z,93978.30
2019-01-31T11:44:38.034Z,93972.56
2019-01-31T11:47:44.488Z,93975.08
2019-01-31T11:50:53.970Z,93813.72
2019-01-31T11:53:51.536Z,93970.43
2019-01-31T11:57:10.659Z,93967.09
2019-01-31T11:59:40.021Z,93971.59
2019-01-31T12:02:09.608Z,93966.55
2019-01-31T12:04:39.065Z,93976.38
2019-01-31T12:07:08.428Z,93967.39
2019-01-31T12:09:37.828Z,93962.94
2019-01-31T12:12:07.168Z,93967.39
2019-01-31T12:14:36.572Z,93956.23
2019-01-31T12:17:06.277Z,93959.52
2019-01-31T12:19:35.921Z,93963.75
2019-01-31T12:22:05.373Z,93957.92
2019-01-31T12:24:34.687Z,93953.23
2019-01-31T12:27:04.124Z,93951.92
2019-01-31T12:29:33.545Z,93955.33
2019-01-31T12:32:03.013Z,93955.23
2019-01-31T12:34:32.343Z,93956.75
2019-01-31T12:37:01.712Z,93955.56
2019-01-31T12:39:31.081Z,93959.95
2019-01-31T12:42:00.500Z,93963.98
2019-01-31T12:44:29.964Z,93958.09
2019-01-31T12:46:59.318Z,93956.34
2019-01-31T12:49:28.668Z,93955.48
2019-01-31T12:51:58.459Z,93959.31
2019-01-31T12:54:28.052Z,93961.36
2019-01-31T12:56:57.401Z,93962.28
2019-01-31T12:59:26.878Z,93960.89
2019-01-31T13:01:56.242Z,93952.58
2019-01-31T13:04:25.608Z,93947.81
2019-01-31T13:06:54.931Z,93949.63
2019-01-31T13:09:24.387Z,93948.67
2019-01-31T13:11:53.942Z,93952.08
2019-01-31T13:14:24.454Z,93958.16
2019-01-31T13:16:53.836Z,93961.55
2019-01-31T13:19:23.369Z,93956.94
2019-01-31T13:21:52.742Z,93956.67
2019-01-31T13:24:22.094Z,93959.81
2019-01-31T13:26:51.421Z,93958.21
2019-01-31T13:29:20.807Z,93971.02
2019-01-31T13:31:50.199Z,93966.17
2019-01-31T13:34:19.549Z,93971.46
2019-01-31T13:36:48.976Z,93969.00
2019-01-31T13:39:18.622Z,93974.11
2019-01-31T13:41:48.054Z,93980.42
2019-01-31T13:44:17.409Z,93971.80
2019-01-31T13:46:46.800Z,93973.02
2019-01-31T13:49:17.998Z,93970.40
2019-01-31T13:51:47.408Z,93969.53
2019-01-31T13:54:16.780Z,93970.69
2019-01-31T13:56:46.240Z,93972.89
2019-01-31T13:59:15.699Z,93975.27
2019-01-31T14:01:45.154Z,93972.48
2019-01-31T14:04:15.003Z,93972.59
2019-01-31T14:06:44.321Z,93976.19
2019-01-31T14:09:13.672Z,93953.77
2019-01-31T14:11:43.096Z,93986.69
2019-01-31T14:14:12.893Z,93979.98
2019-01-31T14:16:47.625Z,93980.40
2019-01-31T14:19:13.436Z,93983.95
2019-01-31T14:21:44.185Z,93982.23
2019-01-31T14:24:13.686Z,93985.92
2019-01-31T14:26:43.090Z,93986.13
2019-01-31T14:29:12.513Z,93992.96
2019-01-31T14:31:42.299Z,93993.81
2019-01-31T14:34:13.710Z,93993.56
2019-01-31T14:36:43.507Z,93988.92
2019-01-31T14:39:12.982Z,93993.94
2019-01-31T14:41:42.365Z,93988.27
2019-01-31T14:44:20.123Z,93998.95
2019-01-31T14:46:42.859Z,93995.16
2019-01-31T14:49:12.224Z,93996.06
2019-01-31T14:51:41.597Z,94004.19
2019-01-31T14:54:10.921Z,94009.89
2019-01-31T14:56:40.260Z,94013.44
2019-01-31T14:59:09.576Z,94013.87
2019-01-31T15:01:38.987Z,94019.55
2019-01-31T15:04:08.349Z,94023.80
2019-01-31T15:06:37.680Z,94031.62
2019-01-31T15:09:09.454Z,94026.25
2019-01-31T15:11:38.819Z,94033.52
2019-01-31T15:14:08.299Z,94031.42
2019-01-31T15:16:37.672Z,94036.36
2019-01-31T15:19:07.042Z,94044.63
2019-01-31T15:21:36.408Z,94042.75
2019-01-31T15:24:05.847Z,94050.41
2019-01-31T15:26:35.174Z,94056.44
2019-01-31T15:29:04.591Z,94075.52
2019-01-31T15:31:33.910Z,94089.32
2019-01-31T15:34:03.560Z,94113.98
2019-01-31T15:36:32.899Z,94115.77
2019-01-31T15:39:02.253Z,94126.00
2019-01-31T15:41:31.679Z,94128.89
2019-01-31T15:44:01.027Z,94139.16
2019-01-31T15:46:30.393Z,94145.34
2019-01-31T15:48:59.746Z,94151.41
2019-01-31T15:51:29.099Z,94143.20
2019-01-31T15:53:58.477Z,94172.38
2019-01-31T15:56:27.834Z,94172.38
2019-01-31T15:58:57.750Z,94174.45
2019-01-31T16:01:27.080Z,94188.84
2019-01-31T16:03:56.452Z,94188.84
2019-01-31T16:06:25.904Z,94195.91
2019-01-31T16:08:55.659Z,94202.31
2019-01-31T16:11:25.170Z,94207.35
2019-01-31T16:13:54.584Z,94207.35
2019-01-31T16:16:23.911Z,94203.89
2019-01-31T16:18:53.268Z,94205.33
2019-01-31T16:21:22.663Z,94214.33
2019-01-31T16:23:52.019Z,94203.67
2019-01-31T16:26:21.490Z,94211.66
2019-01-31T16:28:50.883Z,94212.30
2019-01-31T16:31:20.487Z,94209.95
2019-01-31T16:33:49.865Z,94227.58
2019-01-31T16:36:19.329Z,94227.58
2019-01-31T16:38:49.869Z,94229.30
2019-01-31T16:41:19.392Z,94231.89
2019-01-31T16:43:48.669Z,94231.89
2019-01-31T16:46:18.008Z,94238.08
2019-01-31T16:48:47.412Z,94238.00
2019-01-31T16:51:16.866Z,94253.45
2019-01-31T16:53:46.306Z,94242.09
2019-01-31T16:56:15.679Z,94253.23
2019-01-31T16:58:45.044Z,94253.23
2019-01-31T17:01:16.015Z,94247.50
2019-01-31T17:03:45.600Z,94253.70
2019-01-31T17:06:14.962Z,94246.64
2019-01-31T17:08:44.312Z,94268.66
2019-01-31T17:11:13.642Z,94268.66
2019-01-31T17:13:42.981Z,94271.17
2019-01-31T17:16:12.320Z,94271.17
2019-01-31T17:18:41.685Z,94279.81
2019-01-31T17:21:11.033Z,94279.81
2019-01-31T17:23:40.931Z,94285.78
2019-01-31T17:26:10.304Z,94281.67
2019-01-31T17:28:39.755Z,94284.98
2019-01-31T17:31:09.127Z,94288.75
2019-01-31T17:33:38.503Z,94291.67
2019-01-31T17:36:07.853Z,94293.77
2019-01-31T17:38:37.199Z,94301.39
2019-01-31T17:41:06.546Z,94305.14
2019-01-31T17:43:35.889Z,94304.59
2019-01-31T17:46:06.509Z,94307.51
2019-01-31T17:48:35.864Z,94313.55
2019-01-31T17:51:05.383Z,94315.65
2019-01-31T17:53:34.698Z,94322.95
2019-01-31T17:56:05.164Z,94328.29
2019-01-31T17:58:34.493Z,94321.93
2019-01-31T18:01:03.890Z,94335.98
2019-01-31T18:03:33.287Z,94336.53
2019-01-31T18:06:02.652Z,94337.48
2019-01-31T18:08:32.015Z,94337.01
2019-01-31T18:11:01.377Z,94340.69
2019-01-31T18:13:30.830Z,94351.44
2019-01-31T18:16:00.175Z,94351.28
2019-01-31T18:18:29.542Z,94361.41
2019-01-31T18:20:58.891Z,94355.83
2019-01-31T18:23:28.227Z,94362.50
2019-01-31T18:25:58.949Z,94363.83
2019-01-31T18:28:28.283Z,94368.00
2019-01-31T18:30:57.587Z,94371.45
2019-01-31T18:33:27.755Z,94367.77
2019-01-31T18:35:57.299Z,94365.19
2019-01-31T18:38:26.660Z,94370.02
2019-01-31T18:40:56.009Z,94375.94
2019-01-31T18:43:25.335Z,94386.83
2019-01-31T18:45:54.739Z,94385.56
2019-01-31T18:48:24.419Z,94386.67
2019-01-31T18:50:53.967Z,94389.82
2019-01-31T18:53:23.340Z,94393.20
2019-01-31T18:55:52.670Z,94391.00
2019-01-31T18:58:23.173Z,94401.35
2019-01-31T19:00:52.826Z,94408.97
2019-01-31T19:03:22.420Z,94404.11
2019-01-31T19:05:52.096Z,94410.59
2019-01-31T19:08:21.456Z,94408.95
2019-01-31T19:10:50.794Z,94420.26
2019-01-31T19:13:20.189Z,94426.93
2019-01-31T19:15:50.814Z,94418.06
2019-01-31T19:18:20.133Z,94418.06
2019-01-31T19:20:49.497Z,94426.61
2019-01-31T19:23:19.203Z,94428.27
2019-01-31T19:25:48.562Z,94433.49
2019-01-31T19:28:18.048Z,94431.55
2019-01-31T19:30:47.842Z,94441.56
2019-01-31T19:33:17.269Z,94438.89
2019-01-31T19:35:46.620Z,94443.17
2019-01-31T19:38:16.500Z,94439.56
2019-01-31T19:40:46.918Z,94440.23
2019-01-31T19:43:16.319Z,94440.23
2019-01-31T19:45:50.353Z,94457.59
2019-01-31T19:48:19.768Z,94457.17
2019-01-31T19:50:49.159Z,94465.41
2019-01-31T19:53:18.614Z,94465.41
2019-01-31T19:55:47.967Z,94454.95
2019-01-31T19:58:19.482Z,94465.05
2019-01-31T20:00:48.840Z,94468.09
2019-01-31T20:03:19.749Z,94470.53
2019-01-31T20:05:53.310Z,94478.20
2019-01-31T20:08:22.720Z,94479.55
2019-01-31T20:10:52.292Z,94482.60
2019-01-31T20:13:21.953Z,94476.92
2019-01-31T20:15:52.290Z,94482.23
2019-01-31T20:18:21.981Z,94485.20
2019-01-31T20:20:51.516Z,94493.13
2019-01-31T20:23:20.883Z,94490.30
2019-01-31T20:25:50.449Z,94494.37
2019-01-31T20:28:19.928Z,94501.76
2019-01-31T20:30:50.749Z,94515.89
2019-01-31T20:33:20.168Z,94522.28
2019-01-31T20:35:49.533Z,94522.28
2019-01-31T20:38:20.870Z,94530.34
2019-01-31T20:40:50.249Z,94520.11
2019-01-31T20:43:19.643Z,94535.31
2019-01-31T20:45:49.016Z,94532.40
2019-01-31T20:48:18.366Z,94544.34
2019-01-31T20:50:47.738Z,94544.34
2019-01-31T20:53:18.987Z,94541.42
2019-01-31T20:55:48.377Z,94555.41
2019-01-31T20:58:17.757Z,94559.60
2019-01-31T21:00:48.232Z,94540.88
2019-01-31T21:03:20.817Z,94558.84
2019-01-31T21:05:50.184Z,94553.99
2019-01-31T21:08:19.534Z,94563.99
2019-01-31T21:10:49.683Z,94571.47
2019-01-31T21:13:19.113Z,94576.85
2019-01-31T21:15:48.628Z,94576.85
2019-01-31T21:18:17.992Z,94591.41
2019-01-31T21:20:47.386Z,94596.45
2019-01-31T21:23:16.735Z,94589.83
2019-01-31T21:25:46.103Z,94611.34
2019-01-31T21:28:15.572Z,94612.77
2019-01-31T21:30:44.926Z,94616.03
2019-01-31T21:33:17.539Z,94624.80
2019-01-31T21:35:48.311Z,94625.73
2019-01-31T21:38:17.729Z,94637.88
2019-01-31T21:40:49.153Z,94637.09
2019-01-31T21:43:18.276Z,94635.20
2019-01-31T21:45:47.652Z,94641.39
2019-01-31T21:48:17.080Z,94631.87
2019-01-31T21:50:46.416Z,94638.28
2019-01-31T21:53:18.739Z,94648.58
2019-01-31T21:55:48.123Z,94647.41
2019-01-31T21:58:17.609Z,94659.16
2019-01-31T22:00:47.424Z,94671.36
2019-01-31T22:03:20.059Z,94671.36
2019-01-31T22:05:49.664Z,94671.95
2019-01-31T22:08:19.226Z,94676.13
2019-01-31T22:10:48.555Z,94671.78
2019-01-31T22:13:17.948Z,94671.78
2019-01-31T22:15:47.427Z,94677.11
2019-01-31T22:18:17.983Z,94691.44
2019-01-31T22:20:47.663Z,94691.44
2019-01-31T22:23:17.266Z,94697.77
2019-01-31T22:25:47.164Z,94702.15
2019-01-31T22:28:16.561Z,94702.15
2019-01-31T22:30:45.883Z,94703.16
2019-01-31T22:33:15.273Z,94709.81
2019-01-31T22:35:45.699Z,94709.81
2019-01-31T22:38:15.067Z,94711.20
2019-01-31T22:40:44.410Z,94710.36
2019-01-31T22:43:13.788Z,94720.69
2019-01-31T22:45:43.161Z,94709.46
2019-01-31T22:48:15.153Z,94702.75
2019-01-31T22:50:44.835Z,94709.40
2019-01-31T22:53:14.606Z,94709.85
2019-01-31T22:55:44.017Z,94718.00
2019-01-31T22:58:13.780Z,94721.23
2019-01-31T23:01:16.989Z,94725.66
2019-01-31T23:03:46.387Z,94730.62
2019-01-31T23:06:16.753Z,94730.17
2019-01-31T23:08:46.103Z,94733.39
2019-01-31T23:11:16.001Z,94735.45
2019-01-31T23:13:45.377Z,94738.12
2019-01-31T23:16:14.830Z,94736.70
2019-01-31T23:18:44.206Z,94736.61
2019-01-31T23:21:13.854Z,94728.08
2019-01-31T23:23:43.220Z,94735.28
2019-01-31T23:26:12.658Z,94744.53
2019-01-31T23:28:44.769Z,94741.27
2019-01-31T23:31:13.940Z,94746.93
2019-01-31T23:33:43.461Z,94735.58
2019-01-31T23:36:13.076Z,94743.75
2019-01-31T23:38:42.881Z,94740.77
2019-01-31T23:41:12.872Z,94743.06
2019-01-31T23:43:42.737Z,94745.83
2019-01-31T23:46:12.070Z,94737.10
2019-01-31T23:48:41.528Z,94753.47
2019-01-31T23:51:10.863Z,94754.63
2019-01-31T23:53:40.220Z,94753.34
2019-01-31T23:56:09.724Z,94760.45
2019-01-31T23:58:40.015Z,94761.36
